sensor_id;sensor_type;location;lat;lon;timestamp;pressure;altitude;pressure_sealevel;temperature;humidity
21273;BME280;36726;52.328;10.552;2022-12-18T00:03:47;102037.22;;;-4.95;79.75
21273;BME280;36726;52.328;10.552;2022-12-18T00:06:15;102033.59;;;-4.97;79.90
21273;BME280;36726;52.328;10.552;2022-12-18T00:08:42;102036.03;;;-4.99;79.71
21273;BME280;36726;52.328;10.552;2022-12-18T00:11:20;102042.97;;;-4.98;79.40
21273;BME280;36726;52.328;10.552;2022-12-18T00:13:48;102049.84;;;-4.98;79.13
21273;BME280;36726;52.328;10.552;2022-12-18T00:16:17;102047.25;;;-4.98;79.49
21273;BME280;36726;52.328;10.552;2022-12-18T00:18:48;102056.50;;;-5.00;78.56
21273;BME280;36726;52.328;10.552;2022-12-18T00:21:19;102053.63;;;-5.03;78.87
21273;BME280;36726;52.328;10.552;2022-12-18T00:23:49;102060.47;;;-5.04;78.88
21273;BME280;36726;52.328;10.552;2022-12-18T00:28:45;102072.16;;;-5.07;78.67
21273;BME280;36726;52.328;10.552;2022-12-18T00:31:15;102067.75;;;-5.08;78.79
21273;BME280;36726;52.328;10.552;2022-12-18T00:33:42;102061.53;;;-5.10;78.31
21273;BME280;36726;52.328;10.552;2022-12-18T00:36:16;102053.34;;;-5.15;78.76
21273;BME280;36726;52.328;10.552;2022-12-18T00:38:44;102047.72;;;-5.19;78.68
21273;BME280;36726;52.328;10.552;2022-12-18T00:41:13;102049.09;;;-5.23;78.71
21273;BME280;36726;52.328;10.552;2022-12-18T00:43:40;102053.81;;;-5.28;78.84
21273;BME280;36726;52.328;10.552;2022-12-18T00:46:07;102058.50;;;-5.32;78.62
21273;BME280;36726;52.328;10.552;2022-12-18T00:48:35;102059.88;;;-5.36;78.36
21273;BME280;36726;52.328;10.552;2022-12-18T00:51:01;102068.53;;;-5.35;78.61
21273;BME280;36726;52.328;10.552;2022-12-18T00:53:28;102073.41;;;-5.38;78.55
21273;BME280;36726;52.328;10.552;2022-12-18T00:55:55;102077.47;;;-5.40;79.01
21273;BME280;36726;52.328;10.552;2022-12-18T00:58:21;102072.19;;;-5.42;79.05
21273;BME280;36726;52.328;10.552;2022-12-18T01:00:48;102075.50;;;-5.43;79.10
21273;BME280;36726;52.328;10.552;2022-12-18T01:03:14;102090.69;;;-5.46;78.80
21273;BME280;36726;52.328;10.552;2022-12-18T01:05:42;102094.00;;;-5.47;79.29
21273;BME280;36726;52.328;10.552;2022-12-18T01:08:10;102079.16;;;-5.49;78.78
21273;BME280;36726;52.328;10.552;2022-12-18T01:10:40;102090.06;;;-5.52;78.83
21273;BME280;36726;52.328;10.552;2022-12-18T01:13:07;102077.16;;;-5.52;79.17
21273;BME280;36726;52.328;10.552;2022-12-18T01:15:34;102076.88;;;-5.55;79.05
21273;BME280;36726;52.328;10.552;2022-12-18T01:18:01;102086.84;;;-5.58;78.31
21273;BME280;36726;52.328;10.552;2022-12-18T01:20:28;102089.13;;;-5.61;78.57
21273;BME280;36726;52.328;10.552;2022-12-18T01:22:54;102094.28;;;-5.61;78.72
21273;BME280;36726;52.328;10.552;2022-12-18T01:25:21;102105.38;;;-5.62;78.89
21273;BME280;36726;52.328;10.552;2022-12-18T01:27:49;102109.47;;;-5.64;79.30
21273;BME280;36726;52.328;10.552;2022-12-18T01:30:16;102102.47;;;-5.65;78.47
21273;BME280;36726;52.328;10.552;2022-12-18T01:32:44;102113.53;;;-5.66;78.83
21273;BME280;36726;52.328;10.552;2022-12-18T01:35:10;102105.50;;;-5.69;78.34
21273;BME280;36726;52.328;10.552;2022-12-18T01:37:37;102110.66;;;-5.69;79.32
21273;BME280;36726;52.328;10.552;2022-12-18T01:40:04;102112.19;;;-5.71;78.61
21273;BME280;36726;52.328;10.552;2022-12-18T01:42:31;102106.69;;;-5.74;78.53
21273;BME280;36726;52.328;10.552;2022-12-18T01:45:23;102109.91;;;-5.76;78.19
21273;BME280;36726;52.328;10.552;2022-12-18T01:48:00;102101.09;;;-5.78;79.00
21273;BME280;36726;52.328;10.552;2022-12-18T01:50:39;102105.31;;;-5.79;78.58
21273;BME280;36726;52.328;10.552;2022-12-18T01:53:11;102094.88;;;-5.80;79.32
21273;BME280;36726;52.328;10.552;2022-12-18T01:55:43;102095.78;;;-5.80;79.06
21273;BME280;36726;52.328;10.552;2022-12-18T01:58:11;102101.41;;;-5.84;78.74
21273;BME280;36726;52.328;10.552;2022-12-18T02:00:38;102105.50;;;-5.86;78.73
21273;BME280;36726;52.328;10.552;2022-12-18T02:03:04;102118.81;;;-5.90;78.75
21273;BME280;36726;52.328;10.552;2022-12-18T02:05:47;102104.88;;;-5.92;79.05
21273;BME280;36726;52.328;10.552;2022-12-18T02:08:21;102097.13;;;-5.92;78.97
21273;BME280;36726;52.328;10.552;2022-12-18T02:13:29;102082.88;;;-5.97;78.77
21273;BME280;36726;52.328;10.552;2022-12-18T02:16:05;102091.38;;;-5.98;79.09
21273;BME280;36726;52.328;10.552;2022-12-18T02:18:42;102100.63;;;-6.00;78.83
21273;BME280;36726;52.328;10.552;2022-12-18T02:23:56;102113.16;;;-6.03;78.68
21273;BME280;36726;52.328;10.552;2022-12-18T02:26:36;102105.44;;;-6.03;78.64
21273;BME280;36726;52.328;10.552;2022-12-18T02:29:21;102114.69;;;-6.05;78.83
21273;BME280;36726;52.328;10.552;2022-12-18T02:31:53;102110.28;;;-6.06;78.48
21273;BME280;36726;52.328;10.552;2022-12-18T02:34:23;102106.63;;;-6.08;78.54
21273;BME280;36726;52.328;10.552;2022-12-18T02:36:53;102104.69;;;-6.10;78.50
21273;BME280;36726;52.328;10.552;2022-12-18T02:39:21;102106.03;;;-6.14;78.45
21273;BME280;36726;52.328;10.552;2022-12-18T02:41:58;102115.28;;;-6.16;78.03
21273;BME280;36726;52.328;10.552;2022-12-18T02:44:25;102111.91;;;-6.15;78.56
21273;BME280;36726;52.328;10.552;2022-12-18T02:46:53;102117.22;;;-6.13;78.51
21273;BME280;36726;52.328;10.552;2022-12-18T02:49:31;102121.50;;;-6.14;78.76
21273;BME280;36726;52.328;10.552;2022-12-18T03:00:21;102107.06;;;-6.20;77.99
21273;BME280;36726;52.328;10.552;2022-12-18T03:05:41;102099.03;;;-6.23;78.08
21273;BME280;36726;52.328;10.552;2022-12-18T03:08:24;102104.91;;;-6.24;77.95
21273;BME280;36726;52.328;10.552;2022-12-18T03:11:03;102105.53;;;-6.27;77.82
21273;BME280;36726;52.328;10.552;2022-12-18T03:13:45;102109.03;;;-6.26;78.82
21273;BME280;36726;52.328;10.552;2022-12-18T03:16:26;102112.19;;;-6.29;78.52
21273;BME280;36726;52.328;10.552;2022-12-18T03:18:58;102113.69;;;-6.31;77.93
21273;BME280;36726;52.328;10.552;2022-12-18T03:21:39;102124.75;;;-6.32;78.27
21273;BME280;36726;52.328;10.552;2022-12-18T03:24:09;102114.44;;;-6.32;77.64
21273;BME280;36726;52.328;10.552;2022-12-18T03:26:40;102108.38;;;-6.32;77.65
21273;BME280;36726;52.328;10.552;2022-12-18T03:29:17;102109.72;;;-6.36;77.59
21273;BME280;36726;52.328;10.552;2022-12-18T03:31:50;102107.75;;;-6.39;77.49
21273;BME280;36726;52.328;10.552;2022-12-18T03:34:23;102100.63;;;-6.41;77.82
21273;BME280;36726;52.328;10.552;2022-12-18T03:36:52;102108.16;;;-6.43;77.79
21273;BME280;36726;52.328;10.552;2022-12-18T03:39:22;102101.97;;;-6.45;77.07
21273;BME280;36726;52.328;10.552;2022-12-18T03:42:05;102101.06;;;-6.45;78.23
21273;BME280;36726;52.328;10.552;2022-12-18T03:44:43;102106.22;;;-6.45;78.16
21273;BME280;36726;52.328;10.552;2022-12-18T03:55:14;102097.84;;;-6.51;77.89
21273;BME280;36726;52.328;10.552;2022-12-18T03:57:45;102101.91;;;-6.53;77.66
21273;BME280;36726;52.328;10.552;2022-12-18T04:00:14;102103.41;;;-6.55;77.72
21273;BME280;36726;52.328;10.552;2022-12-18T04:03:04;102105.84;;;-6.57;77.91
21273;BME280;36726;52.328;10.552;2022-12-18T04:05:40;102095.53;;;-6.57;77.76
21273;BME280;36726;52.328;10.552;2022-12-18T04:08:10;102102.53;;;-6.56;77.45
21273;BME280;36726;52.328;10.552;2022-12-18T04:10:41;102100.84;;;-6.55;77.63
21273;BME280;36726;52.328;10.552;2022-12-18T04:13:09;102096.31;;;-6.58;77.44
21273;BME280;36726;52.328;10.552;2022-12-18T04:15:36;102081.59;;;-6.59;78.63
21273;BME280;36726;52.328;10.552;2022-12-18T04:18:07;102081.59;;;-6.59;78.90
21273;BME280;36726;52.328;10.552;2022-12-18T04:20:40;102084.00;;;-6.60;78.42
21273;BME280;36726;52.328;10.552;2022-12-18T04:23:07;102092.50;;;-6.61;78.26
21273;BME280;36726;52.328;10.552;2022-12-18T04:25:34;102087.00;;;-6.64;78.90
21273;BME280;36726;52.328;10.552;2022-12-18T04:28:10;102090.34;;;-6.65;78.50
21273;BME280;36726;52.328;10.552;2022-12-18T04:30:38;102099.00;;;-6.65;78.89
21273;BME280;36726;52.328;10.552;2022-12-18T04:33:11;102106.72;;;-6.65;78.65
21273;BME280;36726;52.328;10.552;2022-12-18T04:35:42;102112.75;;;-6.64;78.83
21273;BME280;36726;52.328;10.552;2022-12-18T04:38:09;102124.88;;;-6.63;78.79
21273;BME280;36726;52.328;10.552;2022-12-18T04:40:39;102105.78;;;-6.65;78.50
21273;BME280;36726;52.328;10.552;2022-12-18T04:43:14;102112.59;;;-6.66;78.64
21273;BME280;36726;52.328;10.552;2022-12-18T04:45:41;102109.13;;;-6.66;78.45
21273;BME280;36726;52.328;10.552;2022-12-18T04:48:08;102109.13;;;-6.66;78.60
21273;BME280;36726;52.328;10.552;2022-12-18T04:50:35;102098.06;;;-6.65;78.16
21273;BME280;36726;52.328;10.552;2022-12-18T04:53:01;102104.88;;;-6.66;78.01
21273;BME280;36726;52.328;10.552;2022-12-18T04:55:28;102109.13;;;-6.66;78.09
21273;BME280;36726;52.328;10.552;2022-12-18T04:57:55;102106.38;;;-6.68;77.88
21273;BME280;36726;52.328;10.552;2022-12-18T05:00:21;102108.94;;;-6.68;77.76
21273;BME280;36726;52.328;10.552;2022-12-18T05:02:48;102106.38;;;-6.68;78.04
21273;BME280;36726;52.328;10.552;2022-12-18T05:05:15;102097.78;;;-6.68;77.98
21273;BME280;36726;52.328;10.552;2022-12-18T05:07:42;102093.34;;;-6.69;78.23
21273;BME280;36726;52.328;10.552;2022-12-18T05:10:09;102092.47;;;-6.70;77.82
21273;BME280;36726;52.328;10.552;2022-12-18T05:12:36;102093.03;;;-6.72;78.20
21273;BME280;36726;52.328;10.552;2022-12-18T05:15:23;102077.31;;;-6.75;77.95
21273;BME280;36726;52.328;10.552;2022-12-18T05:17:50;102078.03;;;-6.76;77.75
21273;BME280;36726;52.328;10.552;2022-12-18T05:20:16;102082.09;;;-6.78;77.98
21273;BME280;36726;52.328;10.552;2022-12-18T05:22:44;102094.81;;;-6.80;78.25
21273;BME280;36726;52.328;10.552;2022-12-18T05:25:11;102098.31;;;-6.79;78.08
21273;BME280;36726;52.328;10.552;2022-12-18T05:27:37;102098.31;;;-6.79;77.82
21273;BME280;36726;52.328;10.552;2022-12-18T05:30:04;102093.16;;;-6.79;77.87
21273;BME280;36726;52.328;10.552;2022-12-18T05:32:31;102090.44;;;-6.81;78.14
21273;BME280;36726;52.328;10.552;2022-12-18T05:34:57;102086.94;;;-6.81;77.48
21273;BME280;36726;52.328;10.552;2022-12-18T05:37:24;102093.59;;;-6.83;77.25
21273;BME280;36726;52.328;10.552;2022-12-18T05:39:51;102096.91;;;-6.84;77.35
21273;BME280;36726;52.328;10.552;2022-12-18T05:42:17;102100.22;;;-6.85;77.46
21273;BME280;36726;52.328;10.552;2022-12-18T05:44:44;102096.56;;;-6.87;77.00
21273;BME280;36726;52.328;10.552;2022-12-18T05:47:11;102110.19;;;-6.88;76.83
21273;BME280;36726;52.328;10.552;2022-12-18T05:49:37;102108.97;;;-6.92;77.06
21273;BME280;36726;52.328;10.552;2022-12-18T05:52:04;102101.09;;;-6.93;77.02
21273;BME280;36726;52.328;10.552;2022-12-18T05:54:30;102106.03;;;-6.95;76.97
21273;BME280;36726;52.328;10.552;2022-12-18T05:56:58;102108.63;;;-6.95;77.11
21273;BME280;36726;52.328;10.552;2022-12-18T05:59:24;102116.94;;;-6.97;76.94
21273;BME280;36726;52.328;10.552;2022-12-18T06:01:51;102118.59;;;-6.98;77.38
21273;BME280;36726;52.328;10.552;2022-12-18T06:04:18;102121.00;;;-6.99;77.37
21273;BME280;36726;52.328;10.552;2022-12-18T06:06:45;102131.28;;;-6.99;77.21
21273;BME280;36726;52.328;10.552;2022-12-18T06:09:12;102127.06;;;-6.99;77.16
21273;BME280;36726;52.328;10.552;2022-12-18T06:11:38;102134.44;;;-7.02;76.54
21273;BME280;36726;52.328;10.552;2022-12-18T06:14:05;102147.91;;;-7.04;77.09
21273;BME280;36726;52.328;10.552;2022-12-18T06:16:32;102151.81;;;-7.08;77.21
21273;BME280;36726;52.328;10.552;2022-12-18T06:19:00;102160.41;;;-7.07;77.13
21273;BME280;36726;52.328;10.552;2022-12-18T06:21:28;102157.69;;;-7.09;77.17
21273;BME280;36726;52.328;10.552;2022-12-18T06:23:54;102152.69;;;-7.07;77.19
21273;BME280;36726;52.328;10.552;2022-12-18T06:26:21;102158.44;;;-7.10;77.25
21273;BME280;36726;52.328;10.552;2022-12-18T06:28:53;102159.34;;;-7.09;77.65
21273;BME280;36726;52.328;10.552;2022-12-18T06:31:20;102159.34;;;-7.09;77.02
21273;BME280;36726;52.328;10.552;2022-12-18T06:33:47;102160.25;;;-7.09;77.59
21273;BME280;36726;52.328;10.552;2022-12-18T06:36:13;102167.81;;;-7.10;76.83
21273;BME280;36726;52.328;10.552;2022-12-18T06:38:42;102165.25;;;-7.10;77.38
21273;BME280;36726;52.328;10.552;2022-12-18T06:41:16;102175.38;;;-7.12;76.98
21273;BME280;36726;52.328;10.552;2022-12-18T06:43:43;102169.31;;;-7.12;77.06
21273;BME280;36726;52.328;10.552;2022-12-18T06:46:11;102152.78;;;-7.14;77.11
21273;BME280;36726;52.328;10.552;2022-12-18T06:48:38;102146.56;;;-7.16;76.62
21273;BME280;36726;52.328;10.552;2022-12-18T06:51:04;102156.84;;;-7.16;76.74
21273;BME280;36726;52.328;10.552;2022-12-18T06:53:32;102164.41;;;-7.18;76.83
21273;BME280;36726;52.328;10.552;2022-12-18T06:56:03;102161.69;;;-7.19;77.18
21273;BME280;36726;52.328;10.552;2022-12-18T06:58:35;102179.69;;;-7.19;76.92
21273;BME280;36726;52.328;10.552;2022-12-18T07:01:04;102182.25;;;-7.19;76.79
21273;BME280;36726;52.328;10.552;2022-12-18T07:03:31;102181.31;;;-7.20;76.92
21273;BME280;36726;52.328;10.552;2022-12-18T07:05:57;102171.97;;;-7.19;76.61
21273;BME280;36726;52.328;10.552;2022-12-18T07:08:24;102169.22;;;-7.21;76.27
21273;BME280;36726;52.328;10.552;2022-12-18T07:10:51;102168.31;;;-7.21;76.54
21273;BME280;36726;52.328;10.552;2022-12-18T07:13:22;102161.38;;;-7.22;76.67
21273;BME280;36726;52.328;10.552;2022-12-18T07:15:48;102167.06;;;-7.25;76.16
21273;BME280;36726;52.328;10.552;2022-12-18T07:18:15;102172.06;;;-7.26;76.72
21273;BME280;36726;52.328;10.552;2022-12-18T07:20:42;102184.91;;;-7.26;76.98
21273;BME280;36726;52.328;10.552;2022-12-18T07:23:08;102184.91;;;-7.26;76.82
21273;BME280;36726;52.328;10.552;2022-12-18T07:25:35;102200.50;;;-7.25;76.69
21273;BME280;36726;52.328;10.552;2022-12-18T07:28:03;102208.81;;;-7.27;76.71
21273;BME280;36726;52.328;10.552;2022-12-18T07:30:30;102210.44;;;-7.28;76.49
21273;BME280;36726;52.328;10.552;2022-12-18T07:32:57;102219.81;;;-7.28;76.78
21273;BME280;36726;52.328;10.552;2022-12-18T07:35:23;102224.22;;;-7.27;77.28
21273;BME280;36726;52.328;10.552;2022-12-18T07:37:51;102220.13;;;-7.25;77.28
21273;BME280;36726;52.328;10.552;2022-12-18T07:40:17;102228.19;;;-7.22;77.40
21273;BME280;36726;52.328;10.552;2022-12-18T07:42:44;102227.59;;;-7.20;76.98
21273;BME280;36726;52.328;10.552;2022-12-18T07:45:10;102228.84;;;-7.16;77.25
21273;BME280;36726;52.328;10.552;2022-12-18T07:47:38;102234.91;;;-7.16;77.31
21273;BME280;36726;52.328;10.552;2022-12-18T07:50:05;102238.88;;;-7.11;77.21
21273;BME280;36726;52.328;10.552;2022-12-18T07:52:32;102237.53;;;-7.07;77.35
21273;BME280;36726;52.328;10.552;2022-12-18T07:54:59;102238.47;;;-7.07;77.22
21273;BME280;36726;52.328;10.552;2022-12-18T07:57:26;102250.75;;;-7.04;77.25
21273;BME280;36726;52.328;10.552;2022-12-18T08:00:13;102253.66;;;-7.01;76.89
21273;BME280;36726;52.328;10.552;2022-12-18T08:02:39;102265.00;;;-6.99;76.61
21273;BME280;36726;52.328;10.552;2022-12-18T08:05:07;102261.13;;;-6.96;77.18
21273;BME280;36726;52.328;10.552;2022-12-18T08:07:34;102258.69;;;-6.94;76.69
21273;BME280;36726;52.328;10.552;2022-12-18T08:10:01;102253.00;;;-6.92;76.43
21273;BME280;36726;52.328;10.552;2022-12-18T08:12:27;102242.09;;;-6.89;76.52
21273;BME280;36726;52.328;10.552;2022-12-18T08:14:54;102246.84;;;-6.85;77.23
21273;BME280;36726;52.328;10.552;2022-12-18T08:17:20;102237.78;;;-6.82;77.16
21273;BME280;36726;52.328;10.552;2022-12-18T08:19:47;102229.50;;;-6.79;77.23
21273;BME280;36726;52.328;10.552;2022-12-18T08:22:14;102226.16;;;-6.78;77.53
21273;BME280;36726;52.328;10.552;2022-12-18T08:24:40;102222.84;;;-6.77;77.67
21273;BME280;36726;52.328;10.552;2022-12-18T08:27:08;102219.84;;;-6.73;78.17
21273;BME280;36726;52.328;10.552;2022-12-18T08:29:54;102211.69;;;-6.69;78.12
21273;BME280;36726;52.328;10.552;2022-12-18T08:32:23;102218.84;;;-6.67;78.84
21273;BME280;36726;52.328;10.552;2022-12-18T08:34:50;102201.16;;;-6.64;78.73
21273;BME280;36726;52.328;10.552;2022-12-18T08:37:16;102206.97;;;-6.58;79.26
21273;BME280;36726;52.328;10.552;2022-12-18T08:39:43;102203.97;;;-6.54;78.89
21273;BME280;36726;52.328;10.552;2022-12-18T08:42:10;102201.84;;;-6.49;79.08
21273;BME280;36726;52.328;10.552;2022-12-18T08:44:55;102205.81;;;-6.44;79.34
21273;BME280;36726;52.328;10.552;2022-12-18T08:47:22;102195.88;;;-6.41;79.56
21273;BME280;36726;52.328;10.552;2022-12-18T08:49:48;102190.72;;;-6.41;79.68
21273;BME280;36726;52.328;10.552;2022-12-18T08:52:15;102188.31;;;-6.40;79.68
21273;BME280;36726;52.328;10.552;2022-12-18T08:54:41;102193.03;;;-6.35;79.39
21273;BME280;36726;52.328;10.552;2022-12-18T08:57:08;102190.00;;;-6.31;79.89
21273;BME280;36726;52.328;10.552;2022-12-18T08:59:35;102187.00;;;-6.27;79.70
21273;BME280;36726;52.328;10.552;2022-12-18T09:02:01;102183.84;;;-6.25;79.57
21273;BME280;36726;52.328;10.552;2022-12-18T09:04:28;102184.31;;;-6.20;80.21
21273;BME280;36726;52.328;10.552;2022-12-18T09:06:55;102175.06;;;-6.18;80.11
21273;BME280;36726;52.328;10.552;2022-12-18T09:09:21;102179.19;;;-6.12;80.29
21273;BME280;36726;52.328;10.552;2022-12-18T09:11:48;102168.59;;;-6.06;80.61
21273;BME280;36726;52.328;10.552;2022-12-18T09:14:15;102172.75;;;-6.00;80.45
21273;BME280;36726;52.328;10.552;2022-12-18T09:16:41;102170.97;;;-5.92;80.76
21273;BME280;36726;52.328;10.552;2022-12-18T09:19:09;102166.41;;;-5.86;80.77
21273;BME280;36726;52.328;10.552;2022-12-18T09:21:36;102165.34;;;-5.80;80.65
21273;BME280;36726;52.328;10.552;2022-12-18T09:24:03;102166.72;;;-5.75;80.59
21273;BME280;36726;52.328;10.552;2022-12-18T09:26:34;102164.78;;;-5.69;80.69
21273;BME280;36726;52.328;10.552;2022-12-18T09:29:02;102157.66;;;-5.63;80.43
21273;BME280;36726;52.328;10.552;2022-12-18T09:31:28;102155.84;;;-5.55;80.51
21273;BME280;36726;52.328;10.552;2022-12-18T09:33:56;102147.06;;;-5.49;80.53
21273;BME280;36726;52.328;10.552;2022-12-18T09:36:23;102148.59;;;-5.42;80.57
21273;BME280;36726;52.328;10.552;2022-12-18T09:38:49;102149.19;;;-5.36;80.99
21273;BME280;36726;52.328;10.552;2022-12-18T09:44:51;102138.47;;;-5.23;80.92
21273;BME280;36726;52.328;10.552;2022-12-18T09:49:44;102131.31;;;-5.09;81.37
21273;BME280;36726;52.328;10.552;2022-12-18T09:52:45;102130.25;;;-5.02;81.51
21273;BME280;36726;52.328;10.552;2022-12-18T09:55:24;102129.03;;;-4.97;81.89
21273;BME280;36726;52.328;10.552;2022-12-18T09:58:12;102120.84;;;-4.93;82.39
21273;BME280;36726;52.328;10.552;2022-12-18T10:00:41;102127.50;;;-4.87;82.51
21273;BME280;36726;52.328;10.552;2022-12-18T10:03:11;102130.25;;;-4.77;82.94
21273;BME280;36726;52.328;10.552;2022-12-18T10:06:21;102131.88;;;-4.69;82.66
21273;BME280;36726;52.328;10.552;2022-12-18T10:09:02;102127.28;;;-4.54;83.21
21273;BME280;36726;52.328;10.552;2022-12-18T10:20:07;102135.66;;;-4.12;83.39
21273;BME280;36726;52.328;10.552;2022-12-18T10:22:42;102141.09;;;-4.01;83.78
21273;BME280;36726;52.328;10.552;2022-12-18T10:25:27;102148.81;;;-3.92;83.93
21273;BME280;36726;52.328;10.552;2022-12-18T10:27:58;102164.25;;;-3.84;83.94
21273;BME280;36726;52.328;10.552;2022-12-18T10:30:26;102176.25;;;-3.76;83.88
21273;BME280;36726;52.328;10.552;2022-12-18T10:32:53;102175.94;;;-3.70;84.20
21273;BME280;36726;52.328;10.552;2022-12-18T10:35:25;102179.97;;;-3.64;84.40
21273;BME280;36726;52.328;10.552;2022-12-18T10:40:57;102162.22;;;-3.42;84.26
21273;BME280;36726;52.328;10.552;2022-12-18T10:48:51;102155.81;;;-3.19;84.34
21273;BME280;36726;52.328;10.552;2022-12-18T10:51:32;102151.47;;;-3.09;84.13
21273;BME280;36726;52.328;10.552;2022-12-18T10:54:04;102150.78;;;-2.98;84.17
21273;BME280;36726;52.328;10.552;2022-12-18T10:56:35;102136.06;;;-2.89;84.13
21273;BME280;36726;52.328;10.552;2022-12-18T10:59:04;102132.78;;;-2.78;84.11
21273;BME280;36726;52.328;10.552;2022-12-18T11:01:49;102134.66;;;-2.67;84.07
21273;BME280;36726;52.328;10.552;2022-12-18T11:04:26;102128.44;;;-2.59;83.55
21273;BME280;36726;52.328;10.552;2022-12-18T11:07:00;102118.16;;;-2.49;83.40
21273;BME280;36726;52.328;10.552;2022-12-18T11:09:30;102113.78;;;-2.40;82.92
21273;BME280;36726;52.328;10.552;2022-12-18T11:12:03;102108.38;;;-2.33;82.78
21273;BME280;36726;52.328;10.552;2022-12-18T11:14:34;102105.53;;;-2.26;82.91
21273;BME280;36726;52.328;10.552;2022-12-18T11:17:24;102106.34;;;-2.17;82.94
21273;BME280;36726;52.328;10.552;2022-12-18T11:20:00;102104.25;;;-2.11;82.52
21273;BME280;36726;52.328;10.552;2022-12-18T11:22:33;102099.88;;;-2.02;82.90
21273;BME280;36726;52.328;10.552;2022-12-18T11:28:04;102083.84;;;-1.88;82.57
21273;BME280;36726;52.328;10.552;2022-12-18T11:30:34;102075.53;;;-1.84;82.80
21273;BME280;36726;52.328;10.552;2022-12-18T11:33:09;102076.06;;;-1.78;82.57
21273;BME280;36726;52.328;10.552;2022-12-18T11:35:47;102074.63;;;-1.74;82.60
21273;BME280;36726;52.328;10.552;2022-12-18T11:38:24;102072.69;;;-1.67;82.62
21273;BME280;36726;52.328;10.552;2022-12-18T11:43:35;102080.47;;;-1.57;82.25
21273;BME280;36726;52.328;10.552;2022-12-18T11:46:12;102089.28;;;-1.55;82.38
21273;BME280;36726;52.328;10.552;2022-12-18T11:49:07;102092.28;;;-1.50;82.52
21273;BME280;36726;52.328;10.552;2022-12-18T11:51:43;102098.75;;;-1.45;82.56
21273;BME280;36726;52.328;10.552;2022-12-18T11:54:15;102117.47;;;-1.39;82.65
21273;BME280;36726;52.328;10.552;2022-12-18T11:56:56;102110.28;;;-1.32;82.70
21273;BME280;36726;52.328;10.552;2022-12-18T12:02:38;102090.03;;;-1.16;82.39
21273;BME280;36726;52.328;10.552;2022-12-18T12:08:20;102081.94;;;-0.98;82.11
21273;BME280;36726;52.328;10.552;2022-12-18T12:16:48;102062.91;;;-0.77;81.96
21273;BME280;36726;52.328;10.552;2022-12-18T12:25:18;102043.06;;;-0.55;81.51
21273;BME280;36726;52.328;10.552;2022-12-18T12:30:49;102032.63;;;-0.45;81.57
21273;BME280;36726;52.328;10.552;2022-12-18T12:36:42;102023.75;;;-0.37;81.24
21273;BME280;36726;52.328;10.552;2022-12-18T12:39:20;102012.56;;;-0.36;80.99
21273;BME280;36726;52.328;10.552;2022-12-18T12:41:48;102012.41;;;-0.38;81.25
21273;BME280;36726;52.328;10.552;2022-12-18T12:44:41;102002.19;;;-0.36;80.29
21273;BME280;36726;52.328;10.552;2022-12-18T12:47:24;102014.59;;;-0.32;79.96
21273;BME280;36726;52.328;10.552;2022-12-18T12:49:54;102000.84;;;-0.31;80.22
21273;BME280;36726;52.328;10.552;2022-12-18T12:52:31;102003.56;;;-0.30;80.52
21273;BME280;36726;52.328;10.552;2022-12-18T12:55:02;102001.97;;;-0.28;80.04
21273;BME280;36726;52.328;10.552;2022-12-18T12:57:40;101994.41;;;-0.25;79.41
21273;BME280;36726;52.328;10.552;2022-12-18T13:00:12;101995.00;;;-0.17;79.68
21273;BME280;36726;52.328;10.552;2022-12-18T13:08:11;101972.41;;;-0.18;79.15
21273;BME280;36726;52.328;10.552;2022-12-18T13:10:47;101978.16;;;-0.22;79.38
21273;BME280;36726;52.328;10.552;2022-12-18T13:13:16;101984.81;;;-0.26;79.40
21273;BME280;36726;52.328;10.552;2022-12-18T13:16:05;101982.09;;;-0.27;79.44
21273;BME280;36726;52.328;10.552;2022-12-18T13:18:33;101955.06;;;-0.29;79.87
21273;BME280;36726;52.328;10.552;2022-12-18T13:23:36;101944.09;;;-0.25;79.78
21273;BME280;36726;52.328;10.552;2022-12-18T13:31:14;101947.50;;;-0.26;79.35
21273;BME280;36726;52.328;10.552;2022-12-18T13:33:44;101954.50;;;-0.25;79.61
21273;BME280;36726;52.328;10.552;2022-12-18T13:36:33;101961.53;;;-0.24;79.57
21273;BME280;36726;52.328;10.552;2022-12-18T13:44:41;101951.59;;;-0.18;79.04
21273;BME280;36726;52.328;10.552;2022-12-18T13:47:36;101947.84;;;-0.22;78.90
21273;BME280;36726;52.328;10.552;2022-12-18T13:50:20;101952.03;;;-0.24;79.19
21273;BME280;36726;52.328;10.552;2022-12-18T13:52:48;101951.00;;;-0.26;79.24
21273;BME280;36726;52.328;10.552;2022-12-18T13:55:19;101943.88;;;-0.28;79.21
21273;BME280;36726;52.328;10.552;2022-12-18T13:57:47;101949.72;;;-0.31;79.03
21273;BME280;36726;52.328;10.552;2022-12-18T14:00:30;101947.13;;;-0.31;79.46
21273;BME280;36726;52.328;10.552;2022-12-18T14:02:58;101961.03;;;-0.30;79.43
21273;BME280;36726;52.328;10.552;2022-12-18T14:05:35;101968.94;;;-0.29;79.11
21273;BME280;36726;52.328;10.552;2022-12-18T14:08:08;101956.88;;;-0.28;79.11
21273;BME280;36726;52.328;10.552;2022-12-18T14:10:41;101958.69;;;-0.27;79.22
21273;BME280;36726;52.328;10.552;2022-12-18T14:13:30;101947.28;;;-0.29;78.95
21273;BME280;36726;52.328;10.552;2022-12-18T14:16:00;101955.84;;;-0.30;78.30
21273;BME280;36726;52.328;10.552;2022-12-18T14:21:05;101963.03;;;-0.38;78.00
21273;BME280;36726;52.328;10.552;2022-12-18T14:23:41;101961.91;;;-0.41;78.15
21273;BME280;36726;52.328;10.552;2022-12-18T14:26:41;101951.16;;;-0.46;78.01
21273;BME280;36726;52.328;10.552;2022-12-18T14:31:44;101951.03;;;-0.47;77.83
21273;BME280;36726;52.328;10.552;2022-12-18T14:34:17;101945.84;;;-0.47;77.71
21273;BME280;36726;52.328;10.552;2022-12-18T14:36:52;101952.84;;;-0.46;78.05
21273;BME280;36726;52.328;10.552;2022-12-18T14:39:20;101948.56;;;-0.46;77.27
21273;BME280;36726;52.328;10.552;2022-12-18T14:41:51;101940.88;;;-0.44;77.65
21273;BME280;36726;52.328;10.552;2022-12-18T14:44:19;101939.97;;;-0.45;77.63
21273;BME280;36726;52.328;10.552;2022-12-18T14:46:49;101949.47;;;-0.45;77.89